sensor_id;sensor_type;location;lat;lon;timestamp;P1;durP1;ratioP1;P2;durP2;ratioP2
5612;SDS011;63463;53.586;9.928;2024-03-02T00:01:44;176.30;;;29.03;;
5612;SDS011;63463;53.586;9.928;2024-03-02T00:04:10;178.37;;;28.47;;
5612;SDS011;63463;53.586;9.928;2024-03-02T00:06:36;171.50;;;28.50;;
5612;SDS011;63463;53.586;9.928;2024-03-02T00:09:02;170.00;;;29.07;;
5612;SDS011;63463;53.586;9.928;2024-03-02T00:11:28;174.47;;;28.67;;
5612;SDS011;63463;53.586;9.928;2024-03-02T00:13:54;171.00;;;28.80;;
5612;SDS011;63463;53.586;9.928;2024-03-02T00:16:20;176.27;;;30.00;;
5612;SDS011;63463;53.586;9.928;2024-03-02T00:18:46;176.63;;;29.20;;
5612;SDS011;63463;53.586;9.928;2024-03-02T00:21:12;171.40;;;30.20;;
5612;SDS011;63463;53.586;9.928;2024-03-02T00:23:39;175.80;;;28.97;;
5612;SDS011;63463;53.586;9.928;2024-03-02T00:26:06;175.97;;;30.53;;
5612;SDS011;63463;53.586;9.928;2024-03-02T00:28:33;176.23;;;29.67;;
5612;SDS011;63463;53.586;9.928;2024-03-02T00:31:03;173.87;;;29.47;;
5612;SDS011;63463;53.586;9.928;2024-03-02T00:33:30;171.20;;;28.30;;
5612;SDS011;63463;53.586;9.928;2024-03-02T00:35:57;174.27;;;29.00;;
5612;SDS011;63463;53.586;9.928;2024-03-02T00:38:24;172.87;;;29.03;;
5612;SDS011;63463;53.586;9.928;2024-03-02T00:40:50;165.37;;;27.80;;
5612;SDS011;63463;53.586;9.928;2024-03-02T00:43:38;173.53;;;30.10;;
5612;SDS011;63463;53.586;9.928;2024-03-02T00:46:05;166.93;;;27.87;;
5612;SDS011;63463;53.586;9.928;2024-03-02T00:48:31;171.97;;;28.17;;
5612;SDS011;63463;53.586;9.928;2024-03-02T00:51:00;171.57;;;27.70;;
5612;SDS011;63463;53.586;9.928;2024-03-02T00:53:28;172.97;;;30.03;;
5612;SDS011;63463;53.586;9.928;2024-03-02T00:55:54;171.07;;;27.83;;
5612;SDS011;63463;53.586;9.928;2024-03-02T00:58:20;180.73;;;30.17;;
5612;SDS011;63463;53.586;9.928;2024-03-02T01:00:46;176.70;;;30.67;;
5612;SDS011;63463;53.586;9.928;2024-03-02T01:03:12;178.20;;;30.70;;
5612;SDS011;63463;53.586;9.928;2024-03-02T01:05:41;173.97;;;29.60;;
5612;SDS011;63463;53.586;9.928;2024-03-02T01:08:07;184.03;;;31.63;;
5612;SDS011;63463;53.586;9.928;2024-03-02T01:10:33;188.83;;;33.77;;
5612;SDS011;63463;53.586;9.928;2024-03-02T01:12:59;189.27;;;31.80;;
5612;SDS011;63463;53.586;9.928;2024-03-02T01:15:25;189.70;;;29.77;;
5612;SDS011;63463;53.586;9.928;2024-03-02T01:17:51;208.77;;;33.90;;
5612;SDS011;63463;53.586;9.928;2024-03-02T01:20:17;188.70;;;33.03;;
5612;SDS011;63463;53.586;9.928;2024-03-02T01:22:43;193.03;;;33.70;;
5612;SDS011;63463;53.586;9.928;2024-03-02T01:25:09;191.20;;;32.60;;
5612;SDS011;63463;53.586;9.928;2024-03-02T01:27:35;196.37;;;34.00;;
5612;SDS011;63463;53.586;9.928;2024-03-02T01:30:01;189.13;;;33.83;;
5612;SDS011;63463;53.586;9.928;2024-03-02T01:32:27;178.57;;;32.33;;
5612;SDS011;63463;53.586;9.928;2024-03-02T01:34:52;184.60;;;32.60;;
5612;SDS011;63463;53.586;9.928;2024-03-02T01:37:18;191.77;;;33.87;;
5612;SDS011;63463;53.586;9.928;2024-03-02T01:39:44;199.67;;;35.57;;
5612;SDS011;63463;53.586;9.928;2024-03-02T01:42:10;204.03;;;37.40;;
5612;SDS011;63463;53.586;9.928;2024-03-02T01:44:36;188.77;;;35.93;;
5612;SDS011;63463;53.586;9.928;2024-03-02T01:47:02;201.60;;;38.40;;
5612;SDS011;63463;53.586;9.928;2024-03-02T01:49:28;204.90;;;38.10;;
5612;SDS011;63463;53.586;9.928;2024-03-02T01:51:54;195.83;;;36.93;;
5612;SDS011;63463;53.586;9.928;2024-03-02T01:54:20;202.90;;;38.50;;
5612;SDS011;63463;53.586;9.928;2024-03-02T01:56:46;198.00;;;37.20;;
5612;SDS011;63463;53.586;9.928;2024-03-02T01:59:12;196.73;;;37.63;;
5612;SDS011;63463;53.586;9.928;2024-03-02T02:01:38;204.87;;;39.20;;
5612;SDS011;63463;53.586;9.928;2024-03-02T02:04:04;196.93;;;37.37;;
5612;SDS011;63463;53.586;9.928;2024-03-02T02:06:31;221.83;;;37.87;;
5612;SDS011;63463;53.586;9.928;2024-03-02T02:08:57;194.83;;;37.00;;
5612;SDS011;63463;53.586;9.928;2024-03-02T02:11:23;194.60;;;37.70;;
5612;SDS011;63463;53.586;9.928;2024-03-02T02:13:49;198.50;;;36.67;;
5612;SDS011;63463;53.586;9.928;2024-03-02T02:16:15;196.53;;;38.00;;
5612;SDS011;63463;53.586;9.928;2024-03-02T02:18:41;210.93;;;39.00;;
5612;SDS011;63463;53.586;9.928;2024-03-02T02:21:07;199.03;;;38.73;;
5612;SDS011;63463;53.586;9.928;2024-03-02T02:23:33;207.63;;;39.87;;
5612;SDS011;63463;53.586;9.928;2024-03-02T02:26:00;204.23;;;39.00;;
5612;SDS011;63463;53.586;9.928;2024-03-02T02:28:28;204.93;;;38.73;;
5612;SDS011;63463;53.586;9.928;2024-03-02T02:30:54;191.23;;;36.83;;
5612;SDS011;63463;53.586;9.928;2024-03-02T02:33:25;197.57;;;37.03;;
5612;SDS011;63463;53.586;9.928;2024-03-02T02:35:51;208.53;;;39.10;;
5612;SDS011;63463;53.586;9.928;2024-03-02T02:38:16;194.77;;;36.97;;
5612;SDS011;63463;53.586;9.928;2024-03-02T02:40:44;201.07;;;38.37;;
5612;SDS011;63463;53.586;9.928;2024-03-02T02:43:10;212.37;;;39.90;;
5612;SDS011;63463;53.586;9.928;2024-03-02T02:45:36;196.53;;;36.67;;
5612;SDS011;63463;53.586;9.928;2024-03-02T02:48:02;213.97;;;39.20;;
5612;SDS011;63463;53.586;9.928;2024-03-02T02:50:28;207.43;;;37.30;;
5612;SDS011;63463;53.586;9.928;2024-03-02T02:52:54;215.43;;;38.73;;
5612;SDS011;63463;53.586;9.928;2024-03-02T02:55:20;206.70;;;38.70;;
5612;SDS011;63463;53.586;9.928;2024-03-02T02:57:46;203.30;;;36.37;;
5612;SDS011;63463;53.586;9.928;2024-03-02T03:00:15;200.50;;;37.80;;
5612;SDS011;63463;53.586;9.928;2024-03-02T03:02:44;194.83;;;36.57;;
5612;SDS011;63463;53.586;9.928;2024-03-02T03:05:13;208.10;;;39.13;;
5612;SDS011;63463;53.586;9.928;2024-03-02T03:07:39;196.03;;;37.63;;
5612;SDS011;63463;53.586;9.928;2024-03-02T03:10:07;193.43;;;37.50;;
5612;SDS011;63463;53.586;9.928;2024-03-02T03:12:33;216.93;;;40.60;;
5612;SDS011;63463;53.586;9.928;2024-03-02T03:14:59;201.10;;;37.13;;
5612;SDS011;63463;53.586;9.928;2024-03-02T03:17:25;192.53;;;37.17;;
5612;SDS011;63463;53.586;9.928;2024-03-02T03:19:54;202.40;;;38.73;;
5612;SDS011;63463;53.586;9.928;2024-03-02T03:22:20;206.47;;;37.63;;
5612;SDS011;63463;53.586;9.928;2024-03-02T03:24:46;203.83;;;37.30;;
5612;SDS011;63463;53.586;9.928;2024-03-02T03:27:12;192.07;;;37.60;;
5612;SDS011;63463;53.586;9.928;2024-03-02T03:29:38;199.87;;;38.77;;
5612;SDS011;63463;53.586;9.928;2024-03-02T03:32:04;211.03;;;39.23;;
5612;SDS011;63463;53.586;9.928;2024-03-02T03:34:34;196.47;;;39.17;;
5612;SDS011;63463;53.586;9.928;2024-03-02T03:37:02;191.17;;;36.83;;
5612;SDS011;63463;53.586;9.928;2024-03-02T03:39:28;197.10;;;39.47;;
5612;SDS011;63463;53.586;9.928;2024-03-02T03:41:54;205.00;;;37.63;;
5612;SDS011;63463;53.586;9.928;2024-03-02T03:44:20;195.67;;;37.40;;
5612;SDS011;63463;53.586;9.928;2024-03-02T03:46:46;208.13;;;38.83;;
5612;SDS011;63463;53.586;9.928;2024-03-02T03:49:12;196.33;;;36.33;;
5612;SDS011;63463;53.586;9.928;2024-03-02T03:51:38;196.57;;;38.60;;
5612;SDS011;63463;53.586;9.928;2024-03-02T03:54:04;202.80;;;39.20;;
5612;SDS011;63463;53.586;9.928;2024-03-02T03:56:30;201.07;;;38.70;;
5612;SDS011;63463;53.586;9.928;2024-03-02T03:58:59;193.57;;;38.27;;
5612;SDS011;63463;53.586;9.928;2024-03-02T04:01:25;194.67;;;39.57;;
5612;SDS011;63463;53.586;9.928;2024-03-02T04:03:51;206.73;;;39.33;;
5612;SDS011;63463;53.586;9.928;2024-03-02T04:06:16;199.87;;;38.00;;
5612;SDS011;63463;53.586;9.928;2024-03-02T04:08:42;198.00;;;37.57;;
5612;SDS011;63463;53.586;9.928;2024-03-02T04:11:08;198.93;;;37.87;;
5612;SDS011;63463;53.586;9.928;2024-03-02T04:13:34;191.93;;;38.30;;
5612;SDS011;63463;53.586;9.928;2024-03-02T04:16:00;206.90;;;39.20;;
5612;SDS011;63463;53.586;9.928;2024-03-02T04:18:26;201.87;;;38.73;;
5612;SDS011;63463;53.586;9.928;2024-03-02T04:20:52;190.43;;;37.70;;
5612;SDS011;63463;53.586;9.928;2024-03-02T04:23:18;199.23;;;37.20;;
5612;SDS011;63463;53.586;9.928;2024-03-02T04:25:44;204.13;;;38.70;;
5612;SDS011;63463;53.586;9.928;2024-03-02T04:28:10;198.30;;;38.53;;
5612;SDS011;63463;53.586;9.928;2024-03-02T04:30:37;199.60;;;38.20;;
5612;SDS011;63463;53.586;9.928;2024-03-02T04:33:03;190.83;;;35.87;;
5612;SDS011;63463;53.586;9.928;2024-03-02T04:35:30;192.97;;;36.27;;
5612;SDS011;63463;53.586;9.928;2024-03-02T04:37:56;189.07;;;36.90;;
5612;SDS011;63463;53.586;9.928;2024-03-02T04:40:22;199.27;;;38.00;;
5612;SDS011;63463;53.586;9.928;2024-03-02T04:42:48;205.53;;;38.93;;
5612;SDS011;63463;53.586;9.928;2024-03-02T04:45:17;192.83;;;38.07;;
5612;SDS011;63463;53.586;9.928;2024-03-02T04:47:43;191.53;;;38.90;;
5612;SDS011;63463;53.586;9.928;2024-03-02T04:50:09;189.97;;;37.77;;
5612;SDS011;63463;53.586;9.928;2024-03-02T04:52:35;192.80;;;34.73;;
5612;SDS011;63463;53.586;9.928;2024-03-02T04:55:01;197.27;;;38.00;;
5612;SDS011;63463;53.586;9.928;2024-03-02T04:57:50;190.87;;;36.93;;
5612;SDS011;63463;53.586;9.928;2024-03-02T05:00:19;188.43;;;36.87;;
5612;SDS011;63463;53.586;9.928;2024-03-02T05:02:45;199.47;;;37.90;;
5612;SDS011;63463;53.586;9.928;2024-03-02T05:05:11;217.70;;;37.33;;
5612;SDS011;63463;53.586;9.928;2024-03-02T05:07:37;204.47;;;38.33;;
5612;SDS011;63463;53.586;9.928;2024-03-02T05:10:03;197.53;;;36.83;;
5612;SDS011;63463;53.586;9.928;2024-03-02T05:12:29;224.27;;;74.20;;
5612;SDS011;63463;53.586;9.928;2024-03-02T05:15:07;197.20;;;37.83;;
5612;SDS011;63463;53.586;9.928;2024-03-02T05:17:35;198.53;;;37.87;;
5612;SDS011;63463;53.586;9.928;2024-03-02T05:20:00;196.93;;;37.30;;
5612;SDS011;63463;53.586;9.928;2024-03-02T05:22:26;207.30;;;37.93;;
5612;SDS011;63463;53.586;9.928;2024-03-02T05:24:52;201.27;;;36.37;;
5612;SDS011;63463;53.586;9.928;2024-03-02T05:27:18;191.53;;;36.07;;
5612;SDS011;63463;53.586;9.928;2024-03-02T05:29:44;194.27;;;36.73;;
5612;SDS011;63463;53.586;9.928;2024-03-02T05:32:10;207.50;;;35.60;;
5612;SDS011;63463;53.586;9.928;2024-03-02T05:34:36;198.33;;;37.07;;
5612;SDS011;63463;53.586;9.928;2024-03-02T05:37:02;193.53;;;37.73;;
5612;SDS011;63463;53.586;9.928;2024-03-02T05:39:28;193.23;;;36.60;;
5612;SDS011;63463;53.586;9.928;2024-03-02T05:41:54;200.77;;;37.67;;
5612;SDS011;63463;53.586;9.928;2024-03-02T05:44:19;192.33;;;37.00;;
5612;SDS011;63463;53.586;9.928;2024-03-02T05:46:45;195.00;;;38.70;;
5612;SDS011;63463;53.586;9.928;2024-03-02T05:49:11;191.63;;;38.00;;
5612;SDS011;63463;53.586;9.928;2024-03-02T05:51:37;199.37;;;38.07;;
5612;SDS011;63463;53.586;9.928;2024-03-02T05:54:03;205.07;;;37.40;;
5612;SDS011;63463;53.586;9.928;2024-03-02T05:56:29;189.57;;;34.50;;
5612;SDS011;63463;53.586;9.928;2024-03-02T05:58:55;197.07;;;37.60;;
5612;SDS011;63463;53.586;9.928;2024-03-02T06:01:44;196.87;;;36.63;;
5612;SDS011;63463;53.586;9.928;2024-03-02T06:04:11;200.43;;;35.60;;
5612;SDS011;63463;53.586;9.928;2024-03-02T06:06:37;199.30;;;36.93;;
5612;SDS011;63463;53.586;9.928;2024-03-02T06:09:03;187.03;;;37.03;;
5612;SDS011;63463;53.586;9.928;2024-03-02T06:11:35;193.97;;;37.47;;
5612;SDS011;63463;53.586;9.928;2024-03-02T06:14:01;195.77;;;38.10;;
5612;SDS011;63463;53.586;9.928;2024-03-02T06:16:27;194.07;;;38.07;;
5612;SDS011;63463;53.586;9.928;2024-03-02T06:18:53;189.93;;;35.13;;
5612;SDS011;63463;53.586;9.928;2024-03-02T06:21:19;191.87;;;35.97;;
5612;SDS011;63463;53.586;9.928;2024-03-02T06:23:45;192.67;;;36.80;;
5612;SDS011;63463;53.586;9.928;2024-03-02T06:26:12;198.57;;;37.27;;
5612;SDS011;63463;53.586;9.928;2024-03-02T06:28:38;187.20;;;36.17;;
5612;SDS011;63463;53.586;9.928;2024-03-02T06:31:03;188.37;;;35.10;;
5612;SDS011;63463;53.586;9.928;2024-03-02T06:33:29;200.90;;;35.67;;
5612;SDS011;63463;53.586;9.928;2024-03-02T06:35:55;209.13;;;35.50;;
5612;SDS011;63463;53.586;9.928;2024-03-02T06:38:21;192.23;;;35.10;;
5612;SDS011;63463;53.586;9.928;2024-03-02T06:40:50;192.17;;;34.77;;
5612;SDS011;63463;53.586;9.928;2024-03-02T06:43:16;188.63;;;35.00;;
5612;SDS011;63463;53.586;9.928;2024-03-02T06:45:42;191.20;;;36.03;;
5612;SDS011;63463;53.586;9.928;2024-03-02T06:48:08;194.73;;;35.27;;
5612;SDS011;63463;53.586;9.928;2024-03-02T06:50:40;185.83;;;35.37;;
5612;SDS011;63463;53.586;9.928;2024-03-02T06:53:06;190.97;;;34.90;;
5612;SDS011;63463;53.586;9.928;2024-03-02T06:55:32;194.07;;;36.03;;
5612;SDS011;63463;53.586;9.928;2024-03-02T06:57:57;191.77;;;36.87;;
5612;SDS011;63463;53.586;9.928;2024-03-02T07:00:24;202.20;;;36.23;;
5612;SDS011;63463;53.586;9.928;2024-03-02T07:02:50;192.73;;;35.77;;
5612;SDS011;63463;53.586;9.928;2024-03-02T07:05:15;197.27;;;36.70;;
5612;SDS011;63463;53.586;9.928;2024-03-02T07:07:41;202.07;;;36.63;;
5612;SDS011;63463;53.586;9.928;2024-03-02T07:10:18;196.53;;;38.67;;
5612;SDS011;63463;53.586;9.928;2024-03-02T07:12:44;185.43;;;34.10;;
5612;SDS011;63463;53.586;9.928;2024-03-02T07:15:10;199.30;;;37.47;;
5612;SDS011;63463;53.586;9.928;2024-03-02T07:17:46;192.20;;;34.53;;
5612;SDS011;63463;53.586;9.928;2024-03-02T07:20:12;190.47;;;35.53;;
5612;SDS011;63463;53.586;9.928;2024-03-02T07:22:38;183.13;;;35.97;;
5612;SDS011;63463;53.586;9.928;2024-03-02T07:25:04;204.10;;;34.77;;
5612;SDS011;63463;53.586;9.928;2024-03-02T07:27:32;191.60;;;35.13;;
5612;SDS011;63463;53.586;9.928;2024-03-02T07:30:00;192.30;;;34.20;;
5612;SDS011;63463;53.586;9.928;2024-03-02T07:32:26;199.03;;;34.17;;
5612;SDS011;63463;53.586;9.928;2024-03-02T07:34:52;185.17;;;33.90;;
5612;SDS011;63463;53.586;9.928;2024-03-02T07:37:18;192.17;;;32.87;;
5612;SDS011;63463;53.586;9.928;2024-03-02T07:39:44;180.63;;;32.83;;
5612;SDS011;63463;53.586;9.928;2024-03-02T07:42:13;185.20;;;33.90;;
5612;SDS011;63463;53.586;9.928;2024-03-02T07:44:39;180.80;;;33.13;;
5612;SDS011;63463;53.586;9.928;2024-03-02T07:47:05;192.03;;;34.10;;
5612;SDS011;63463;53.586;9.928;2024-03-02T07:49:34;187.27;;;33.33;;
5612;SDS011;63463;53.586;9.928;2024-03-02T07:52:00;187.57;;;34.13;;
5612;SDS011;63463;53.586;9.928;2024-03-02T07:54:26;185.93;;;34.20;;
5612;SDS011;63463;53.586;9.928;2024-03-02T07:56:51;177.50;;;32.23;;
5612;SDS011;63463;53.586;9.928;2024-03-02T07:59:17;184.47;;;35.60;;
5612;SDS011;63463;53.586;9.928;2024-03-02T08:01:43;184.60;;;34.17;;
5612;SDS011;63463;53.586;9.928;2024-03-02T08:04:09;187.47;;;33.30;;
5612;SDS011;63463;53.586;9.928;2024-03-02T08:06:35;204.03;;;34.90;;
5612;SDS011;63463;53.586;9.928;2024-03-02T08:09:01;200.80;;;43.97;;
5612;SDS011;63463;53.586;9.928;2024-03-02T08:11:34;185.07;;;34.00;;
5612;SDS011;63463;53.586;9.928;2024-03-02T08:14:00;175.97;;;32.63;;
5612;SDS011;63463;53.586;9.928;2024-03-02T08:16:26;181.10;;;32.77;;
5612;SDS011;63463;53.586;9.928;2024-03-02T08:18:52;184.60;;;33.40;;
5612;SDS011;63463;53.586;9.928;2024-03-02T08:21:18;188.00;;;32.70;;
5612;SDS011;63463;53.586;9.928;2024-03-02T08:23:44;188.60;;;33.70;;
5612;SDS011;63463;53.586;9.928;2024-03-02T08:26:11;192.23;;;33.30;;
5612;SDS011;63463;53.586;9.928;2024-03-02T08:28:37;191.13;;;35.40;;
5612;SDS011;63463;53.586;9.928;2024-03-02T08:31:05;180.67;;;32.50;;
5612;SDS011;63463;53.586;9.928;2024-03-02T08:33:31;184.17;;;32.80;;
5612;SDS011;63463;53.586;9.928;2024-03-02T08:35:57;186.83;;;34.13;;
5612;SDS011;63463;53.586;9.928;2024-03-02T08:38:23;179.07;;;32.73;;
5612;SDS011;63463;53.586;9.928;2024-03-02T08:40:49;189.00;;;36.07;;
5612;SDS011;63463;53.586;9.928;2024-03-02T08:43:15;184.07;;;31.97;;
5612;SDS011;63463;53.586;9.928;2024-03-02T08:45:41;190.03;;;32.30;;
5612;SDS011;63463;53.586;9.928;2024-03-02T08:48:07;190.33;;;33.20;;
5612;SDS011;63463;53.586;9.928;2024-03-02T08:50:34;187.87;;;32.73;;
5612;SDS011;63463;53.586;9.928;2024-03-02T08:53:00;188.63;;;33.73;;
5612;SDS011;63463;53.586;9.928;2024-03-02T08:55:26;183.87;;;31.20;;
5612;SDS011;63463;53.586;9.928;2024-03-02T08:57:52;193.83;;;31.20;;
5612;SDS011;63463;53.586;9.928;2024-03-02T09:00:18;184.10;;;31.47;;
5612;SDS011;63463;53.586;9.928;2024-03-02T09:02:45;191.50;;;32.73;;
5612;SDS011;63463;53.586;9.928;2024-03-02T09:05:11;180.57;;;29.60;;
5612;SDS011;63463;53.586;9.928;2024-03-02T09:07:37;186.90;;;29.53;;
5612;SDS011;63463;53.586;9.928;2024-03-02T09:10:03;172.70;;;27.83;;
5612;SDS011;63463;53.586;9.928;2024-03-02T09:12:29;164.33;;;25.30;;
5612;SDS011;63463;53.586;9.928;2024-03-02T09:14:55;171.80;;;25.30;;
5612;SDS011;63463;53.586;9.928;2024-03-02T09:17:22;167.80;;;24.63;;
5612;SDS011;63463;53.586;9.928;2024-03-02T09:19:48;166.33;;;21.27;;
5612;SDS011;63463;53.586;9.928;2024-03-02T09:22:17;171.07;;;25.67;;
5612;SDS011;63463;53.586;9.928;2024-03-02T09:24:43;165.87;;;25.47;;
5612;SDS011;63463;53.586;9.928;2024-03-02T09:27:09;164.10;;;24.50;;
5612;SDS011;63463;53.586;9.928;2024-03-02T09:29:35;170.17;;;24.10;;
5612;SDS011;63463;53.586;9.928;2024-03-02T09:32:01;169.83;;;22.77;;
5612;SDS011;63463;53.586;9.928;2024-03-02T09:34:27;166.37;;;24.10;;
5612;SDS011;63463;53.586;9.928;2024-03-02T09:36:53;167.10;;;25.57;;
5612;SDS011;63463;53.586;9.928;2024-03-02T09:39:19;166.90;;;23.30;;
5612;SDS011;63463;53.586;9.928;2024-03-02T09:41:45;165.30;;;23.63;;
5612;SDS011;63463;53.586;9.928;2024-03-02T09:44:12;165.43;;;23.50;;
5612;SDS011;63463;53.586;9.928;2024-03-02T09:46:38;168.57;;;23.30;;
5612;SDS011;63463;53.586;9.928;2024-03-02T09:49:04;161.90;;;21.73;;
5612;SDS011;63463;53.586;9.928;2024-03-02T09:51:30;167.93;;;25.70;;
5612;SDS011;63463;53.586;9.928;2024-03-02T09:53:57;169.67;;;23.80;;
5612;SDS011;63463;53.586;9.928;2024-03-02T09:56:22;167.50;;;22.17;;
5612;SDS011;63463;53.586;9.928;2024-03-02T09:58:48;160.37;;;22.43;;
5612;SDS011;63463;53.586;9.928;2024-03-02T10:01:15;163.60;;;23.20;;
5612;SDS011;63463;53.586;9.928;2024-03-02T10:03:40;161.77;;;20.97;;
5612;SDS011;63463;53.586;9.928;2024-03-02T10:06:20;164.37;;;21.37;;
5612;SDS011;63463;53.586;9.928;2024-03-02T10:08:46;161.63;;;21.50;;
5612;SDS011;63463;53.586;9.928;2024-03-02T10:11:28;161.83;;;21.03;;
5612;SDS011;63463;53.586;9.928;2024-03-02T10:14:12;164.00;;;20.87;;
5612;SDS011;63463;53.586;9.928;2024-03-02T10:16:39;163.23;;;21.30;;
5612;SDS011;63463;53.586;9.928;2024-03-02T10:19:15;162.80;;;20.83;;
5612;SDS011;63463;53.586;9.928;2024-03-02T10:21:47;158.07;;;19.90;;
5612;SDS011;63463;53.586;9.928;2024-03-02T10:24:14;150.40;;;17.67;;
5612;SDS011;63463;53.586;9.928;2024-03-02T10:26:40;161.70;;;20.00;;
5612;SDS011;63463;53.586;9.928;2024-03-02T10:29:07;154.07;;;19.40;;
5612;SDS011;63463;53.586;9.928;2024-03-02T10:31:33;153.43;;;18.23;;
5612;SDS011;63463;53.586;9.928;2024-03-02T10:34:00;150.80;;;18.30;;
5612;SDS011;63463;53.586;9.928;2024-03-02T10:36:27;151.27;;;18.00;;
5612;SDS011;63463;53.586;9.928;2024-03-02T10:38:55;152.83;;;17.67;;
5612;SDS011;63463;53.586;9.928;2024-03-02T10:41:26;154.67;;;19.77;;
5612;SDS011;63463;53.586;9.928;2024-03-02T10:43:53;152.47;;;17.53;;
5612;SDS011;63463;53.586;9.928;2024-03-02T10:46:26;147.60;;;16.80;;
5612;SDS011;63463;53.586;9.928;2024-03-02T10:48:56;148.27;;;17.80;;
5612;SDS011;63463;53.586;9.928;2024-03-02T10:51:29;147.50;;;17.97;;
5612;SDS011;63463;53.586;9.928;2024-03-02T10:54:01;148.90;;;17.57;;
5612;SDS011;63463;53.586;9.928;2024-03-02T10:56:28;144.97;;;16.20;;
5612;SDS011;63463;53.586;9.928;2024-03-02T10:58:55;153.60;;;17.83;;
5612;SDS011;63463;53.586;9.928;2024-03-02T11:01:25;151.33;;;18.47;;
5612;SDS011;63463;53.586;9.928;2024-03-02T11:03:51;150.10;;;16.57;;
5612;SDS011;63463;53.586;9.928;2024-03-02T11:06:18;151.00;;;18.07;;
5612;SDS011;63463;53.586;9.928;2024-03-02T11:08:44;146.97;;;16.17;;
5612;SDS011;63463;53.586;9.928;2024-03-02T11:11:16;151.47;;;16.47;;
5612;SDS011;63463;53.586;9.928;2024-03-02T11:13:48;144.47;;;15.90;;
5612;SDS011;63463;53.586;9.928;2024-03-02T11:16:36;147.27;;;15.17;;
5612;SDS011;63463;53.586;9.928;2024-03-02T11:19:02;148.70;;;16.13;;
5612;SDS011;63463;53.586;9.928;2024-03-02T11:21:29;147.97;;;16.90;;
5612;SDS011;63463;53.586;9.928;2024-03-02T11:23:57;146.00;;;16.60;;
5612;SDS011;63463;53.586;9.928;2024-03-02T11:26:23;146.90;;;17.37;;
5612;SDS011;63463;53.586;9.928;2024-03-02T11:28:49;147.23;;;15.60;;
5612;SDS011;63463;53.586;9.928;2024-03-02T11:31:16;149.60;;;16.27;;
5612;SDS011;63463;53.586;9.928;2024-03-02T11:33:42;149.23;;;16.40;;
5612;SDS011;63463;53.586;9.928;2024-03-02T11:36:08;145.57;;;15.60;;
5612;SDS011;63463;53.586;9.928;2024-03-02T11:38:35;145.40;;;16.10;;
5612;SDS011;63463;53.586;9.928;2024-03-02T11:41:02;143.17;;;15.17;;
5612;SDS011;63463;53.586;9.928;2024-03-02T11:43:28;143.13;;;15.40;;
5612;SDS011;63463;53.586;9.928;2024-03-02T11:45:57;145.00;;;15.60;;
5612;SDS011;63463;53.586;9.928;2024-03-02T11:48:24;139.87;;;14.50;;
5612;SDS011;63463;53.586;9.928;2024-03-02T11:50:50;144.57;;;14.90;;
5612;SDS011;63463;53.586;9.928;2024-03-02T11:53:17;145.63;;;15.27;;
5612;SDS011;63463;53.586;9.928;2024-03-02T11:55:43;143.07;;;15.70;;
5612;SDS011;63463;53.586;9.928;2024-03-02T11:58:13;148.27;;;15.70;;
5612;SDS011;63463;53.586;9.928;2024-03-02T12:00:39;144.40;;;15.60;;
5612;SDS011;63463;53.586;9.928;2024-03-02T12:03:06;144.00;;;14.40;;
5612;SDS011;63463;53.586;9.928;2024-03-02T12:05:32;141.63;;;14.80;;
5612;SDS011;63463;53.586;9.928;2024-03-02T12:08:02;142.43;;;14.60;;
5612;SDS011;63463;53.586;9.928;2024-03-02T12:10:28;143.77;;;14.57;;
5612;SDS011;63463;53.586;9.928;2024-03-02T12:12:55;142.20;;;14.50;;
5612;SDS011;63463;53.586;9.928;2024-03-02T12:15:25;146.00;;;15.43;;
5612;SDS011;63463;53.586;9.928;2024-03-02T12:17:55;147.07;;;14.30;;
5612;SDS011;63463;53.586;9.928;2024-03-02T12:20:22;141.70;;;14.07;;
5612;SDS011;63463;53.586;9.928;2024-03-02T12:22:49;147.40;;;13.83;;
5612;SDS011;63463;53.586;9.928;2024-03-02T12:25:15;143.17;;;14.10;;
5612;SDS011;63463;53.586;9.928;2024-03-02T12:27:42;144.63;;;14.50;;
5612;SDS011;63463;53.586;9.928;2024-03-02T12:30:08;148.77;;;14.80;;
5612;SDS011;63463;53.586;9.928;2024-03-02T12:32:36;144.57;;;14.03;;
5612;SDS011;63463;53.586;9.928;2024-03-02T12:35:04;143.03;;;14.00;;
5612;SDS011;63463;53.586;9.928;2024-03-02T12:37:30;143.50;;;13.40;;
5612;SDS011;63463;53.586;9.928;2024-03-02T12:39:56;147.47;;;14.90;;
5612;SDS011;63463;53.586;9.928;2024-03-02T12:42:23;141.93;;;13.90;;
5612;SDS011;63463;53.586;9.928;2024-03-02T12:44:51;139.67;;;13.90;;
5612;SDS011;63463;53.586;9.928;2024-03-02T12:47:20;143.23;;;13.40;;
5612;SDS011;63463;53.586;9.928;2024-03-02T12:49:46;147.47;;;14.17;;
5612;SDS011;63463;53.586;9.928;2024-03-02T12:52:12;142.57;;;13.80;;
5612;SDS011;63463;53.586;9.928;2024-03-02T12:54:38;143.23;;;14.10;;
5612;SDS011;63463;53.586;9.928;2024-03-02T12:57:04;141.47;;;13.30;;
5612;SDS011;63463;53.586;9.928;2024-03-02T12:59:30;138.07;;;12.63;;
5612;SDS011;63463;53.586;9.928;2024-03-02T13:01:56;138.73;;;13.20;;
5612;SDS011;63463;53.586;9.928;2024-03-02T13:04:26;142.27;;;13.70;;
5612;SDS011;63463;53.586;9.928;2024-03-02T13:06:53;138.97;;;12.57;;
5612;SDS011;63463;53.586;9.928;2024-03-02T13:09:21;135.30;;;11.77;;
5612;SDS011;63463;53.586;9.928;2024-03-02T13:11:48;141.20;;;12.90;;
5612;SDS011;63463;53.586;9.928;2024-03-02T13:14:14;139.43;;;13.00;;
5612;SDS011;63463;53.586;9.928;2024-03-02T13:16:40;146.47;;;13.97;;
5612;SDS011;63463;53.586;9.928;2024-03-02T13:19:12;140.33;;;12.67;;
5612;SDS011;63463;53.586;9.928;2024-03-02T13:21:38;141.87;;;14.03;;
5612;SDS011;63463;53.586;9.928;2024-03-02T13:24:05;139.27;;;12.37;;
5612;SDS011;63463;53.586;9.928;2024-03-02T13:26:31;139.77;;;13.00;;
5612;SDS011;63463;53.586;9.928;2024-03-02T13:28:57;142.40;;;14.20;;
5612;SDS011;63463;53.586;9.928;2024-03-02T13:31:23;147.60;;;15.50;;
5612;SDS011;63463;53.586;9.928;2024-03-02T13:33:49;146.47;;;15.80;;
5612;SDS011;63463;53.586;9.928;2024-03-02T13:36:15;148.60;;;14.53;;
5612;SDS011;63463;53.586;9.928;2024-03-02T13:38:42;143.93;;;13.20;;
5612;SDS011;63463;53.586;9.928;2024-03-02T13:41:08;142.77;;;14.27;;
5612;SDS011;63463;53.586;9.928;2024-03-02T13:43:34;142.63;;;13.40;;
5612;SDS011;63463;53.586;9.928;2024-03-02T13:46:01;142.80;;;13.00;;
5612;SDS011;63463;53.586;9.928;2024-03-02T13:48:27;144.90;;;14.07;;
5612;SDS011;63463;53.586;9.928;2024-03-02T13:50:53;137.33;;;12.17;;
5612;SDS011;63463;53.586;9.928;2024-03-02T13:53:19;142.90;;;13.97;;
5612;SDS011;63463;53.586;9.928;2024-03-02T13:55:45;143.23;;;13.33;;
5612;SDS011;63463;53.586;9.928;2024-03-02T13:58:11;142.77;;;13.50;;
5612;SDS011;63463;53.586;9.928;2024-03-02T14:00:38;141.17;;;13.47;;
5612;SDS011;63463;53.586;9.928;2024-03-02T14:03:04;146.27;;;16.27;;
5612;SDS011;63463;53.586;9.928;2024-03-02T14:05:31;141.67;;;13.77;;
5612;SDS011;63463;53.586;9.928;2024-03-02T14:07:57;140.17;;;13.97;;
5612;SDS011;63463;53.586;9.928;2024-03-02T14:10:25;142.80;;;14.50;;
5612;SDS011;63463;53.586;9.928;2024-03-02T14:12:52;146.00;;;15.17;;
5612;SDS011;63463;53.586;9.928;2024-03-02T14:15:18;140.47;;;14.40;;
5612;SDS011;63463;53.586;9.928;2024-03-02T14:17:44;148.10;;;14.57;;
5612;SDS011;63463;53.586;9.928;2024-03-02T14:20:10;145.10;;;15.90;;